Time;durP1;ratioP1;P1;durP2;ratioP2;P2;SDS_P1;SDS_P2;PMS_P1;PMS_P2;Temp;Humidity;BMP_temperature;BMP_pressure;BME280_temperature;BME280_humidity;BME280_pressure;Samples;Min_cycle;Max_cycle;Signal;HPM_P1;HPM_P2
2024/04/12 00:01:49;;;;;;;6.65;4.07;;;14.80;99.90;;;-144.05;78.18;56918.94;5344438;26;20005;-77
2024/04/12 00:04:20;;;;;;;9.73;3.92;;;10.70;99.90;;;-144.05;78.88;56948.66;5376895;26;20004;-78
2024/04/12 00:07:00;;;;;;;8.80;3.90;;;10.10;99.90;;;-144.05;77.88;56912.56;5379024;26;20004;-78
2024/04/12 00:09:29;;;;;;;12.68;4.35;;;9.90;99.90;;;-144.05;77.59;56912.56;5351534;26;20008;-77
2024/04/12 00:11:55;;;;;;;8.93;4.40;;;9.90;99.90;;;-144.05;78.17;56904.06;5351231;26;20024;-78
2024/04/12 00:14:23;;;;;;;11.02;4.30;;;13.20;99.90;;;-144.05;77.64;56910.44;5345804;26;20450;-77
2024/04/12 00:16:55;;;;;;;7.85;4.10;;;14.20;99.90;;;-144.05;77.51;56910.44;5386938;26;20001;-77
2024/04/12 00:19:26;;;;;;;9.57;4.18;;;10.50;99.90;;;-144.05;77.44;56931.66;5352153;26;20000;-79
2024/04/12 00:21:56;;;;;;;9.45;4.47;;;14.50;99.90;;;-144.05;77.51;56895.56;5351169;26;20001;-78
2024/04/12 00:24:27;;;;;;;10.52;4.68;;;10.50;99.90;;;-144.05;77.19;56925.28;5346696;26;20011;-79
2024/04/12 00:26:54;;;;;;;10.23;3.88;;;14.90;99.90;;;-144.05;77.06;56938.03;5384938;26;20449;-79
2024/04/12 00:29:36;;;;;;;7.72;4.07;;;14.60;99.90;;;-144.05;76.82;56933.78;5385439;26;20337;-81
2024/04/12 00:32:18;;;;;;;7.80;4.03;;;10.70;99.90;;;-144.05;76.91;56887.06;5353231;26;20061;-79
2024/04/12 00:34:47;;;;;;;10.13;4.15;;;11.00;99.90;;;-144.05;77.51;56927.41;5385386;26;20016;-79
2024/04/12 00:37:16;;;;;;;8.13;4.32;;;9.90;99.90;;;-144.05;77.67;56916.81;5384664;26;20008;-81
2024/04/12 00:39:48;;;;;;;8.65;4.00;;;14.70;99.90;;;-144.05;77.44;56927.41;5384982;26;19996;-78
2024/04/12 00:42:25;;;;;;;9.52;4.63;;;15.20;99.90;;;-144.05;77.39;56908.31;5347351;26;20001;-80
2024/04/12 00:44:54;;;;;;;9.15;4.72;;;;;;;-144.05;77.54;56931.66;5379704;26;19997;-80
2024/04/12 00:47:22;;;;;;;9.13;4.60;;;;;;;-144.05;77.50;56925.28;5383297;26;19996;-79
2024/04/12 00:49:51;;;;;;;8.75;4.25;;;15.20;99.90;;;-144.05;76.91;56904.06;5382211;26;20452;-78
2024/04/12 00:52:23;;;;;;;7.63;4.38;;;15.30;99.90;;;-144.05;77.11;56931.66;5381435;26;20007;-78
2024/04/12 00:55:03;;;;;;;7.50;4.18;;;14.30;99.90;;;-144.05;77.20;56912.56;5349124;26;20016;-78
2024/04/12 00:57:36;;;;;;;8.68;4.45;;;10.30;99.90;;;-144.05;77.09;56933.78;5381244;26;20334;-80
2024/04/12 01:00:46;;;;;;;8.68;4.05;;;10.40;99.90;;;-144.05;76.93;56893.44;5381578;26;20015;-80
2024/04/12 01:03:15;;;;;;;10.68;4.40;;;;;;;-144.05;77.38;56927.41;5371613;26;20341;-78
2024/04/12 01:05:41;;;;;;;8.30;3.88;;;14.90;99.90;;;-144.05;77.02;56914.69;5382112;26;20012;-77
2024/04/12 01:08:07;;;;;;;9.68;4.25;;;15.10;99.90;;;-144.05;77.00;56880.69;5351224;26;20012;-78
2024/04/12 01:10:36;;;;;;;9.98;3.97;;;15.20;99.90;;;-144.05;77.04;56921.06;5382314;26;20008;-78
2024/04/12 01:13:04;;;;;;;11.05;4.45;;;11.20;99.90;;;-144.05;76.91;56908.31;5381537;26;20008;-78
2024/04/12 01:15:37;;;;;;;5.45;3.72;;;11.10;99.90;;;-144.05;76.82;56908.31;5381669;26;20001;-79
2024/04/12 01:18:11;;;;;;;7.85;3.83;;;14.60;99.90;;;-144.05;76.88;56906.19;5382446;26;20052;-78
2024/04/12 01:20:39;;;;;;;7.55;3.80;;;15.30;99.90;;;-144.05;76.82;56940.16;5347762;26;20441;-81
2024/04/12 01:23:06;;;;;;;12.70;4.53;;;10.10;99.90;;;-144.05;76.67;56931.66;5380765;26;20015;-78
2024/04/12 01:25:33;;;;;;;6.38;3.78;;;10.50;99.90;;;-144.05;76.90;56925.28;5336372;26;20008;-80
2024/04/12 01:28:02;;;;;;;9.38;4.55;;;11.20;99.90;;;-144.05;76.81;56918.94;5347631;26;20062;-77
2024/04/12 01:30:30;;;;;;;9.07;4.57;;;11.00;99.90;;;-144.05;76.58;56908.31;5382152;26;20489;-77
2024/04/12 01:32:57;;;;;;;8.80;4.40;;;10.40;99.90;;;-144.05;76.81;56906.19;5382588;26;20032;-80
2024/04/12 01:35:24;;;;;;;11.38;4.22;;;14.80;99.90;;;-144.05;76.59;56927.41;5383364;26;20451;-80
2024/04/12 01:37:51;;;;;;;8.45;4.15;;;10.80;99.90;;;-144.05;76.75;56912.56;5382771;26;20426;-80
2024/04/12 01:40:22;;;;;;;15.15;5.03;;;9.80;99.90;;;-144.05;76.61;56921.06;5382643;26;19996;-78
2024/04/12 01:42:48;;;;;;;7.07;4.47;;;14.60;99.90;;;-144.05;76.89;56925.28;5351668;26;20325;-82
2024/04/12 01:45:14;;;;;;;6.90;4.40;;;10.10;99.90;;;-144.05;76.88;56912.56;5358253;26;19997;-82
2024/04/12 01:47:47;;;;;;;6.80;3.70;;;;;;;-144.05;76.89;56925.28;5389396;26;20004;-78
2024/04/12 01:50:21;;;;;;;7.43;3.92;;;10.00;99.90;;;-144.05;76.44;56921.06;5405538;26;20004;-77
2024/04/12 01:52:53;;;;;;;6.78;4.25;;;10.80;99.90;;;-144.05;75.99;56916.81;5406467;26;20011;-81
2024/04/12 01:55:25;;;;;;;11.80;4.00;;;11.20;99.90;;;-144.05;76.13;56895.56;5371003;26;20021;-81
2024/04/12 01:57:55;;;;;;;8.30;4.00;;;15.10;99.90;;;-144.05;76.39;56891.31;5348236;26;20000;-81
2024/04/12 02:00:24;;;;;;;7.63;3.65;;;10.50;99.90;;;-144.05;75.93;56923.19;5362984;26;19996;-78
2024/04/12 02:02:59;;;;;;;7.43;3.90;;;15.00;99.90;;;-144.05;75.99;56891.31;5391414;26;20000;-80
2024/04/12 02:05:34;;;;;;;9.18;3.95;;;13.40;99.90;;;-144.05;76.41;56933.78;5402339;26;20010;-78
2024/04/12 02:08:16;;;;;;;9.93;4.20;;;10.60;99.90;;;-144.05;76.54;56927.41;5356303;26;20000;-80
2024/04/12 02:10:46;;;;;;;7.65;3.80;;;10.40;99.90;;;-144.05;76.24;56904.06;5363301;26;20089;-76
2024/04/12 02:13:17;;;;;;;6.28;3.50;;;14.70;99.90;;;-144.05;75.58;56918.94;5393799;26;19992;-77
2024/04/12 02:15:54;;;;;;;5.57;3.67;;;10.60;99.90;;;-144.05;75.91;56908.31;5380201;26;19996;-76
2024/04/12 02:18:23;;;;;;;6.15;3.55;;;10.40;99.90;;;-144.05;75.72;56921.06;5379785;26;20476;-80
2024/04/12 02:20:52;;;;;;;9.20;3.65;;;10.90;99.90;;;-144.05;75.80;56929.53;5375098;26;20473;-77
2024/04/12 02:23:23;;;;;;;11.48;3.38;;;15.00;99.90;;;-144.05;75.33;56908.31;5381083;26;20012;-79
2024/04/12 02:25:49;;;;;;;8.35;3.58;;;10.70;99.90;;;-144.05;75.01;56921.06;5338317;26;20014;-78
2024/04/12 02:28:16;;;;;;;5.78;3.42;;;11.10;99.90;;;-144.05;75.23;56914.69;5343926;26;19997;-82
2024/04/12 02:30:55;;;;;;;6.85;3.47;;;10.80;99.90;;;-144.05;75.47;56921.06;5377669;26;20027;-80
2024/04/12 02:33:30;;;;;;;6.15;3.28;;;11.00;99.90;;;-144.05;74.59;56908.31;5380452;26;20035;-78
2024/04/12 02:36:02;;;;;;;6.40;3.00;;;10.60;99.90;;;-144.05;74.73;56923.19;5380219;26;20008;-80
2024/04/12 02:38:29;;;;;;;5.07;3.40;;;15.10;99.90;;;-144.05;74.63;56912.56;5380192;26;20407;-80
2024/04/12 02:40:58;;;;;;;5.60;3.10;;;15.40;99.90;;;-144.05;74.74;56904.06;5375691;26;20100;-79
2024/04/12 02:43:25;;;;;;;5.57;2.80;;;15.20;99.90;;;-144.05;74.71;56908.31;5342638;26;20338;-77
2024/04/12 02:45:58;;;;;;;7.65;3.40;;;13.70;99.90;;;-144.05;75.37;56927.41;5378956;26;20465;-79
2024/04/12 02:48:24;;;;;;;4.05;2.85;;;14.90;99.90;;;-144.05;75.01;56925.28;5379460;26;19996;-79
2024/04/12 02:50:54;;;;;;;6.22;2.85;;;13.70;99.90;;;-144.05;74.71;56927.41;5379387;26;20037;-79
2024/04/12 02:53:24;;;;;;;4.45;2.80;;;15.20;99.90;;;-144.05;74.65;56925.28;5381553;26;19997;-78
2024/04/12 02:56:01;;;;;;;5.05;3.20;;;13.70;99.90;;;-144.05;74.90;56910.44;5346935;26;19996;-78
2024/04/12 02:58:38;;;;;;;7.40;3.00;;;15.10;99.90;;;-144.05;74.91;56929.53;5342560;26;20150;-79
2024/04/12 03:01:10;;;;;;;7.80;2.83;;;10.70;99.90;;;-144.05;74.35;56925.28;5377500;26;20449;-79
2024/04/12 03:03:41;;;;;;;4.60;2.85;;;14.70;99.90;;;-144.05;73.80;56923.19;5379280;26;20011;-77
2024/04/12 03:06:10;;;;;;;7.32;3.25;;;15.00;99.90;;;-144.05;73.97;56906.19;5369453;26;20024;-78
2024/04/12 03:08:43;;;;;;;8.07;2.70;;;10.10;99.90;;;-144.05;73.71;56910.44;5378951;26;20103;-79
2024/04/12 03:11:21;;;;;;;4.32;2.75;;;11.50;99.90;;;-144.05;73.86;56925.28;5379183;26;20372;-78
2024/04/12 03:14:04;;;;;;;4.78;2.97;;;11.20;99.90;;;-144.05;74.44;56925.28;5386359;26;20015;-79
2024/04/12 03:16:41;;;;;;;5.13;2.70;;;15.20;99.90;;;-144.05;73.92;56921.06;5355021;26;20149;-79
2024/04/12 03:19:07;;;;;;;4.63;2.70;;;11.60;99.90;;;-144.05;74.00;56916.81;5354324;26;20005;-80
2024/04/12 03:21:35;;;;;;;3.63;2.53;;;10.70;99.90;;;-144.05;73.94;56918.94;5381285;26;20000;-78
2024/04/12 03:24:09;;;;;;;4.28;2.95;;;10.70;99.90;;;-144.05;73.93;56910.44;5383457;26;20174;-81
2024/04/12 03:26:36;;;;;;;5.50;2.50;;;15.30;99.90;;;-144.05;74.04;56946.53;5378561;26;20061;-82
2024/04/12 03:29:05;;;;;;;5.20;2.10;;;11.40;99.90;;;-144.05;73.97;56929.53;5384108;26;20011;-81
2024/04/12 03:31:38;;;;;;;4.28;2.75;;;13.70;99.90;;;-144.05;73.94;56906.19;5383428;26;20008;-82
2024/04/12 03:34:13;;;;;;;8.00;2.40;;;;;;;-144.05;74.08;56921.06;5351391;26;20024;-79
2024/04/12 03:42:03;;;;;;;3.55;1.98;;;10.50;99.90;;;-144.05;73.90;56914.69;5378243;26;20036;-80
2024/04/12 03:44:38;;;;;;;4.00;2.20;;;11.80;99.90;;;-144.05;73.90;56935.91;5379337;26;20017;-81
2024/04/12 03:47:07;;;;;;;3.50;2.55;;;10.30;99.90;;;-144.05;74.55;56925.28;5379060;26;19996;-80
2024/04/12 03:49:44;;;;;;;4.03;2.20;;;15.30;99.90;;;-144.05;74.62;56910.44;5378685;26;20004;-80
2024/04/12 03:52:12;;;;;;;3.95;2.53;;;10.30;99.90;;;-144.05;74.89;56918.94;5376245;26;19996;-81
2024/04/12 03:54:40;;;;;;;7.72;2.13;;;14.60;99.90;;;-144.05;74.84;56914.69;5378645;26;20110;-77
2024/04/12 03:57:09;;;;;;;3.47;2.47;;;10.60;99.90;;;-144.05;75.12;56908.31;5347307;26;20429;-79
2024/04/12 03:59:36;;;;;;;5.95;2.90;;;15.20;99.90;;;-144.05;75.06;56918.94;5347337;26;19997;-78
2024/04/12 04:02:09;;;;;;;4.85;3.22;;;10.40;99.90;;;-144.05;75.38;56906.19;5347132;26;20008;-79
2024/04/12 04:04:49;;;;;;;3.72;2.20;;;15.10;99.90;;;-144.05;75.67;56918.94;5378703;26;20008;-82
2024/04/12 04:07:16;;;;;;;6.32;2.95;;;10.80;99.90;;;-144.05;75.42;56927.41;5342681;26;19997;-80
2024/04/12 04:09:44;;;;;;;5.68;3.15;;;15.40;99.90;;;-144.05;75.39;56929.53;5382542;26;20024;-80
2024/04/12 04:12:14;;;;;;;4.03;2.53;;;11.50;99.90;;;-144.05;75.55;56938.03;5378235;26;20032;-78
2024/04/12 04:14:47;;;;;;;4.30;2.90;;;11.70;99.90;;;-144.05;75.66;56893.44;5344127;26;20024;-81
2024/04/12 04:17:15;;;;;;;6.75;3.10;;;15.20;99.90;;;-144.05;76.39;56927.41;5377771;26;20020;-78
2024/04/12 04:19:42;;;;;;;6.55;4.18;;;10.50;99.90;;;-144.05;76.67;56925.28;5377528;26;20009;-79
2024/04/12 04:24:57;;;;;;;7.72;3.50;;;15.00;99.90;;;-144.05;76.52;56933.78;5364386;26;19996;-79
2024/04/12 04:27:24;;;;;;;6.47;3.72;;;13.70;99.90;;;-144.05;76.80;56904.06;5377628;26;19997;-78
2024/04/12 04:29:55;;;;;;;7.57;4.15;;;10.90;99.90;;;-144.05;77.08;56931.66;5377501;26;20492;-80
2024/04/12 04:32:26;;;;;;;6.82;3.70;;;15.40;99.90;;;-144.05;77.20;56923.19;5340867;26;20009;-80
2024/04/12 04:35:04;;;;;;;8.80;4.90;;;;;;;-144.05;78.02;56923.19;5377317;26;19996;-79
2024/04/12 04:37:39;;;;;;;6.32;3.83;;;13.50;99.90;;;-144.05;78.50;56914.69;5341134;26;20678;-79
2024/04/12 04:40:16;;;;;;;7.53;4.68;;;14.80;99.90;;;-144.05;78.19;56912.56;5377214;26;20073;-77
2024/04/12 04:42:45;;;;;;;6.05;4.55;;;10.30;99.90;;;-144.05;78.44;56897.69;5351170;26;20016;-83
2024/04/12 04:45:18;;;;;;;5.82;3.63;;;15.20;99.90;;;-144.05;78.65;56933.78;5385903;26;20354;-83
2024/04/12 04:47:45;;;;;;;7.93;4.30;;;15.20;99.90;;;-144.05;78.10;56901.94;5352309;26;20016;-82
2024/04/12 04:50:16;;;;;;;7.35;4.07;;;11.60;99.90;;;-144.05;78.62;56906.19;5351213;26;20450;-83
2024/04/12 04:52:42;;;;;;;6.70;4.10;;;11.30;99.90;;;-144.05;79.36;56923.19;5350080;26;20353;-83
2024/04/12 04:55:08;;;;;;;6.28;3.92;;;11.00;99.90;;;-144.05;79.10;56921.06;5354945;26;20000;-81
2024/04/12 04:57:35;;;;;;;9.43;4.38;;;14.60;99.90;;;-144.05;79.79;56925.28;5349731;26;20029;-81
2024/04/12 05:00:08;;;;;;;10.63;5.07;;;10.20;99.90;;;-144.05;79.86;56933.78;5348398;26;20429;-79
2024/04/12 05:02:35;;;;;;;8.27;4.50;;;14.90;99.90;;;-144.05;79.99;56914.69;5365284;26;19996;-79
2024/04/12 05:05:04;;;;;;;10.20;5.88;;;10.50;99.90;;;-144.05;80.29;56923.19;5383932;26;20069;-79
2024/04/12 05:07:34;;;;;;;10.07;4.80;;;13.60;99.90;;;-144.05;80.32;56923.19;5347091;26;20001;-79
2024/04/12 05:10:14;;;;;;;9.15;4.32;;;11.00;99.90;;;-144.05;80.43;56916.81;5382866;26;20004;-77
2024/04/12 05:12:42;;;;;;;7.93;4.72;;;11.70;99.90;;;-144.05;80.20;56901.94;5382354;26;20007;-79
2024/04/12 05:15:31;;;;;;;8.00;4.65;;;14.70;99.90;;;-144.05;80.39;56914.69;5350498;26;20011;-80
2024/04/12 05:18:03;;;;;;;9.50;4.45;;;11.00;99.90;;;-144.05;80.05;56914.69;5381391;26;20379;-79
2024/04/12 05:20:43;;;;;;;10.35;4.88;;;10.90;99.90;;;-144.05;80.40;56935.91;5381596;26;20050;-79
2024/04/12 05:23:12;;;;;;;7.70;4.70;;;10.80;99.90;;;-144.05;80.82;56940.16;5383105;26;20012;-80
2024/04/12 05:25:49;;;;;;;7.95;4.82;;;10.70;99.90;;;-144.05;81.22;56935.91;5380830;26;20000;-79
2024/04/12 05:28:15;;;;;;;6.28;4.57;;;10.70;99.90;;;-144.05;81.12;56918.94;5353606;26;20115;-79
2024/04/12 05:30:42;;;;;;;7.95;5.40;;;10.50;99.90;;;-144.05;81.56;56927.41;5377754;26;20076;-79
2024/04/12 05:33:16;;;;;;;9.25;5.13;;;10.90;99.90;;;-144.05;82.26;56931.66;5370039;26;20462;-77
2024/04/12 05:35:43;;;;;;;6.18;4.47;;;11.00;99.90;;;-144.05;82.42;56933.78;5346717;26;20024;-79
2024/04/12 05:38:09;;;;;;;7.05;3.97;;;11.50;99.90;;;-144.05;82.99;56908.31;5351439;26;20463;-77
2024/04/12 05:40:51;;;;;;;7.72;4.88;;;15.60;99.90;;;-144.05;82.32;56921.06;5377155;26;20322;-79
2024/04/12 05:43:21;;;;;;;8.65;5.15;;;;;;;-144.05;82.46;56908.31;5376022;26;20000;-80
2024/04/12 05:45:50;;;;;;;8.63;5.22;;;15.00;99.90;;;-144.05;82.62;56908.31;5349364;26;20005;-77
2024/04/12 05:48:21;;;;;;;7.60;5.00;;;10.90;99.90;;;-144.05;82.94;56935.91;5381763;26;20036;-80
2024/04/12 05:50:49;;;;;;;9.55;5.53;;;10.90;99.90;;;-144.05;82.96;56948.66;5350785;26;20461;-78
2024/04/12 05:53:18;;;;;;;7.47;4.93;;;10.10;99.90;;;-144.05;82.50;56927.41;5381257;26;20016;-80
2024/04/12 05:55:44;;;;;;;11.45;5.72;;;;;;;-144.05;82.61;56918.94;5354258;26;20020;-78
2024/04/12 05:58:16;;;;;;;7.32;5.18;;;11.00;99.90;;;-144.05;82.96;56925.28;5343573;26;20015;-80
2024/04/12 06:00:42;;;;;;;9.45;5.82;;;10.80;99.90;;;-144.05;82.64;56914.69;5355411;26;20074;-80
2024/04/12 06:03:14;;;;;;;7.25;4.88;;;11.20;99.90;;;-144.05;82.56;56925.28;5358469;26;19997;-78
2024/04/12 06:05:57;;;;;;;9.88;6.07;;;11.80;99.90;;;-144.05;83.52;56914.69;5367430;26;20042;-78
2024/04/12 06:08:24;;;;;;;7.72;5.35;;;13.50;99.90;;;-144.05;83.64;56921.06;5375926;26;20011;-79
2024/04/12 06:10:51;;;;;;;7.95;6.32;;;11.10;99.90;;;-144.05;83.27;56908.31;5380834;26;20070;-80
2024/04/12 06:13:20;;;;;;;11.45;6.00;;;11.40;99.90;;;-144.05;83.63;56925.28;5349049;26;19997;-80
2024/04/12 06:15:48;;;;;;;10.07;5.70;;;11.90;99.90;;;-144.05;82.98;56921.06;5348946;26;20469;-79
2024/04/12 06:18:16;;;;;;;9.35;6.38;;;12.10;99.90;;;-144.05;82.83;56921.06;5350420;26;20011;-79
2024/04/12 06:20:43;;;;;;;12.15;6.80;;;11.40;99.90;;;-144.05;83.40;56927.41;5359989;26;20012;-79
2024/04/12 06:23:12;;;;;;;11.10;5.55;;;11.20;99.90;;;-144.05;83.03;56914.69;5373841;26;20000;-78
2024/04/12 06:25:45;;;;;;;6.45;4.78;;;14.40;99.90;;;-144.05;83.57;56925.28;5379987;26;20011;-80
2024/04/12 06:28:14;;;;;;;8.35;4.95;;;13.90;99.90;;;-144.05;83.01;56908.31;5381275;26;20108;-80
2024/04/12 06:30:48;;;;;;;8.88;5.10;;;11.80;99.90;;;-144.05;82.66;56916.81;5349908;26;20000;-78
2024/04/12 06:33:20;;;;;;;6.90;4.43;;;13.80;99.90;;;-144.05;81.83;56923.19;5349497;26;20004;-78
2024/04/12 06:35:49;;;;;;;8.32;4.30;;;14.70;99.90;;;-144.05;81.90;56895.56;5380738;26;20012;-79
2024/04/12 06:38:22;;;;;;;5.72;3.58;;;15.20;99.90;;;-144.05;80.97;56910.44;5380923;26;20402;-81
2024/04/12 06:40:59;;;;;;;5.15;3.50;;;14.60;99.90;;;-144.05;80.84;56910.44;5381436;26;20362;-80
2024/04/12 06:43:26;;;;;;;8.90;3.15;;;14.70;99.90;;;-144.05;80.82;56916.81;5381378;26;19997;-80
2024/04/12 06:46:11;;;;;;;5.40;3.15;;;14.70;99.90;;;-144.05;80.69;56887.06;5350446;26;20000;-79
2024/04/12 06:48:41;;;;;;;4.87;2.40;;;;;;;-144.05;80.45;56923.19;5381289;26;20452;-76
2024/04/12 06:51:12;;;;;;;5.15;2.60;;;11.40;99.90;;;-144.05;81.05;56927.41;5350108;26;20243;-78
2024/04/12 06:53:44;;;;;;;3.30;2.50;;;11.40;99.90;;;-144.05;80.12;56929.53;5380833;26;20014;-78
2024/04/12 06:56:15;;;;;;;6.18;2.33;;;15.20;99.90;;;-144.05;79.57;56914.69;5364446;26;19997;-78
2024/04/12 06:58:48;;;;;;;3.10;2.08;;;15.00;99.90;;;-144.05;79.23;56927.41;5347940;26;20001;-80
2024/04/12 07:01:21;;;;;;;3.75;2.38;;;12.80;99.90;;;-144.05;79.86;56944.41;5345189;26;20000;-79
2024/04/12 07:03:48;;;;;;;2.92;2.17;;;12.20;99.90;;;-144.05;80.29;56904.06;5349814;26;20365;-78
2024/04/12 07:06:16;;;;;;;3.53;2.00;;;10.80;99.90;;;-144.05;80.04;56923.19;5383168;26;20008;-79
2024/04/12 07:08:51;;;;;;;4.45;2.20;;;10.30;99.90;;;-144.05;80.77;56923.19;5382928;26;19997;-77
2024/04/12 07:11:24;;;;;;;3.78;2.42;;;14.20;99.90;;;-144.05;81.03;56950.78;5353753;26;19996;-81
2024/04/12 07:13:51;;;;;;;5.43;2.40;;;;;;;-144.05;81.24;56938.03;5384108;26;20098;-79
2024/04/12 07:16:20;;;;;;;3.80;2.10;;;15.20;99.90;;;-144.05;81.48;56918.94;5351164;26;20035;-80
2024/04/12 07:18:47;;;;;;;5.43;2.50;;;13.90;99.90;;;-144.05;81.59;56914.69;5350830;26;20001;-78
2024/04/12 07:21:16;;;;;;;4.38;2.58;;;10.90;99.90;;;-144.05;81.26;56925.28;5375902;26;20008;-80
2024/04/12 07:23:46;;;;;;;4.03;2.72;;;11.80;99.90;;;-144.05;81.33;56908.31;5395065;26;20001;-81
2024/04/12 07:26:24;;;;;;;3.53;2.70;;;10.70;99.90;;;-144.05;81.20;56929.53;5381977;26;20004;-78
2024/04/12 07:28:58;;;;;;;5.85;3.53;;;15.20;99.90;;;-144.05;82.32;56912.56;5383853;26;20073;-80
2024/04/12 07:31:34;;;;;;;5.43;2.95;;;11.30;99.90;;;-144.05;81.63;56906.19;5384352;26;20015;-82
2024/04/12 07:34:02;;;;;;;8.45;3.40;;;15.30;99.90;;;-144.05;81.46;56923.19;5371868;26;20464;-82
2024/04/12 07:36:31;;;;;;;4.88;3.53;;;15.20;99.90;;;-144.05;80.79;56901.94;5349137;26;20028;-81
2024/04/12 07:39:07;;;;;;;4.70;3.22;;;14.10;99.90;;;-144.05;80.64;56935.91;5380343;26;20004;-81
2024/04/12 07:41:38;;;;;;;9.25;3.35;;;15.30;99.90;;;-144.05;80.51;56929.53;5403850;26;20011;-77
2024/04/12 07:44:12;;;;;;;5.28;3.33;;;15.30;99.90;;;-144.05;80.66;56929.53;5389610;26;20027;-78
2024/04/12 07:46:45;;;;;;;6.18;3.30;;;11.90;99.90;;;-144.05;79.42;56916.81;5390723;26;20003;-79
2024/04/12 07:49:13;;;;;;;3.58;3.00;;;11.60;99.90;;;-144.05;79.02;56927.41;5341113;26;20353;-80
2024/04/12 07:51:39;;;;;;;3.78;2.67;;;16.00;99.90;;;-144.05;79.13;56933.78;5385452;26;20008;-78
2024/04/12 07:54:11;;;;;;;8.30;3.15;;;14.80;99.90;;;-144.05;78.26;56929.53;5384029;26;20028;-77
2024/04/12 07:56:57;;;;;;;9.55;3.08;;;16.20;99.90;;;-144.05;78.25;56942.28;5348240;26;20109;-78
2024/04/12 07:59:25;;;;;;;6.93;2.80;;;12.10;99.90;;;-144.05;78.19;56929.53;5382207;26;20430;-80
2024/04/12 08:01:52;;;;;;;6.25;2.65;;;;;;;-144.05;77.62;56923.19;5384478;26;19997;-79
2024/04/12 08:04:36;;;;;;;4.82;2.67;;;14.90;99.90;;;-144.05;77.13;56910.44;5380280;26;20012;-81
2024/04/12 08:07:13;;;;;;;5.43;2.97;;;16.50;99.90;;;-144.05;78.01;56895.56;5347968;26;20066;-81
2024/04/12 08:09:46;;;;;;;4.93;2.85;;;16.40;99.90;;;-144.05;76.57;56935.91;5350923;26;20016;-79
2024/04/12 08:12:23;;;;;;;6.75;2.65;;;16.10;99.90;;;-144.05;76.00;56912.56;5384719;26;20014;-77
2024/04/12 08:14:55;;;;;;;6.82;2.75;;;16.30;99.90;;;-144.05;76.60;56933.78;5397462;26;20780;-80
2024/04/12 08:17:39;;;;;;;4.82;2.80;;;16.50;99.90;;;-144.05;75.85;56912.56;5384100;26;20036;-79
2024/04/12 08:20:21;;;;;;;7.22;2.85;;;16.80;99.90;;;-144.05;75.38;56921.06;5378436;26;20015;-76
2024/04/12 08:22:47;;;;;;;6.93;2.58;;;13.50;99.90;;;-144.05;73.30;56942.28;5351968;26;20000;-76
2024/04/12 08:25:17;;;;;;;6.13;2.47;;;13.80;99.90;;;-144.05;70.98;56912.56;5352164;26;20012;-80
2024/04/12 08:27:43;;;;;;;5.32;2.30;;;17.60;99.90;;;-144.05;69.87;56923.19;5384164;26;20004;-79
2024/04/12 08:30:19;;;;;;;4.28;2.47;;;13.80;99.90;;;-144.05;68.17;56904.06;5356040;26;20015;-79
2024/04/12 08:32:48;;;;;;;4.75;2.70;;;17.90;99.90;;;-144.05;68.49;56935.91;5374590;26;20480;-79
2024/04/12 08:35:19;;;;;;;8.73;2.63;;;18.10;99.90;;;-144.05;69.33;56935.91;5352342;26;20001;-81
2024/04/12 08:37:47;;;;;;;6.13;2.33;;;17.80;99.90;;;-144.05;68.89;56948.66;5406281;26;20040;-81
2024/04/12 08:40:19;;;;;;;5.82;2.85;;;17.60;99.90;;;-144.05;69.38;56935.91;5386738;26;20015;-79
2024/04/12 08:42:45;;;;;;;5.32;2.33;;;;;;;-144.05;70.60;56946.53;5386177;26;20081;-78
2024/04/12 08:45:17;;;;;;;5.68;2.65;;;;;;;-144.05;70.76;56931.66;5384389;26;19997;-77
2024/04/12 08:47:56;;;;;;;3.63;2.17;;;14.60;99.90;;;-144.05;70.88;56923.19;5398467;26;20012;-78
2024/04/12 08:50:30;;;;;;;4.32;2.30;;;16.30;99.90;;;-144.05;70.04;56878.56;5352010;26;20020;-79
2024/04/12 08:52:58;;;;;;;6.38;2.13;;;17.10;99.90;;;-144.05;69.76;56931.66;5341338;26;20060;-80
2024/04/12 08:55:25;;;;;;;7.15;2.35;;;13.30;99.90;;;-144.05;70.27;56929.53;5400298;26;20000;-78
2024/04/12 08:58:01;;;;;;;3.78;2.30;;;17.60;99.90;;;-144.05;69.77;56912.56;5385315;26;20047;-82
2024/04/12 09:00:33;;;;;;;5.38;1.85;;;16.60;99.90;;;-144.05;68.60;56935.91;5352692;26;20015;-81
2024/04/12 09:03:10;;;;;;;4.63;1.90;;;14.30;99.90;;;-144.05;68.84;56952.91;5356439;26;19997;-80
2024/04/12 09:05:42;;;;;;;6.13;2.50;;;14.10;99.90;;;-144.05;69.65;56955.03;5372793;26;20019;-81
2024/04/12 09:08:17;;;;;;;4.80;2.15;;;18.10;99.90;;;-144.05;69.62;56899.81;5381608;26;20352;-77
2024/04/12 09:10:43;;;;;;;5.75;2.08;;;18.30;99.90;;;-144.05;69.10;56938.03;5348327;26;19997;-78
2024/04/12 09:13:14;;;;;;;3.70;2.22;;;14.70;99.90;;;-144.05;68.27;56925.28;5381527;26;20321;-79
2024/04/12 09:15:45;;;;;;;5.20;2.28;;;14.10;99.90;;;-144.05;68.15;56931.66;5347879;26;20126;-80
2024/04/12 09:18:18;;;;;;;5.28;2.03;;;16.80;99.90;;;-144.05;68.64;56923.19;5375901;26;20000;-78
2024/04/12 09:21:01;;;;;;;3.33;2.13;;;18.40;99.90;;;-144.05;68.06;56933.78;5347930;26;20011;-79
2024/04/12 09:23:34;;;;;;;3.17;2.35;;;17.70;99.90;;;-144.05;68.50;56925.28;5382021;26;19996;-80
2024/04/12 09:26:21;;;;;;;4.05;2.35;;;14.20;99.90;;;-144.05;69.23;56931.66;5343572;26;20032;-80
2024/04/12 09:28:49;;;;;;;4.25;2.92;;;17.40;99.90;;;-144.05;68.77;56942.28;5380215;26;20004;-80
2024/04/12 09:37:01;;;;;;;3.72;2.42;;;17.90;99.90;;;-144.05;67.64;56921.06;5377770;26;20012;-80
2024/04/12 09:42:19;;;;;;;3.85;2.70;;;14.80;99.90;;;-144.05;66.65;56931.66;5312053;26;20329;-79
2024/04/12 09:44:49;;;;;;;5.55;3.28;;;18.60;99.90;;;-144.05;65.94;56965.66;5383405;26;20015;-77
2024/04/12 10:37:53;;;;;;;6.38;4.20;;;;;;;-144.05;65.23;56923.19;5383741;26;20386;-80
2024/04/12 10:40:21;;;;;;;8.68;3.85;;;14.40;99.90;;;-144.05;65.01;56950.78;5391702;26;20014;-81
2024/04/12 10:42:52;;;;;;;5.88;4.05;;;17.40;99.90;;;-144.05;65.35;56929.53;5355059;26;20012;-79
2024/04/12 10:45:18;;;;;;;7.63;3.70;;;14.60;99.90;;;-144.05;65.37;56933.78;5393331;26;20076;-79
2024/04/12 10:47:46;;;;;;;6.55;3.78;;;18.60;99.90;;;-144.05;65.65;56938.03;5383298;26;20040;-79
2024/04/12 10:50:13;;;;;;;6.90;4.15;;;14.50;99.90;;;-144.05;65.39;56948.66;5353685;26;19997;-78
2024/04/12 10:52:42;;;;;;;9.65;3.67;;;17.50;99.90;;;-144.05;65.45;56931.66;5354872;26;20007;-78
2024/04/12 10:55:09;;;;;;;7.78;3.72;;;19.10;99.90;;;-144.05;64.94;56933.78;5379187;26;20399;-80
2024/04/12 10:57:48;;;;;;;7.75;3.38;;;15.00;99.90;;;-144.05;63.94;56959.28;5381970;26;20018;-79
2024/04/12 11:00:27;;;;;;;8.70;3.75;;;15.10;99.90;;;-144.05;63.87;56929.53;5381437;26;20028;-80
2024/04/12 11:02:54;;;;;;;8.52;4.35;;;19.10;99.90;;;-144.05;64.25;56942.28;5380658;26;20000;-78
2024/04/12 11:07:51;;;;;;;7.35;3.80;;;14.80;99.90;;;-144.05;64.04;56959.28;5370218;26;20004;-79
2024/04/12 11:10:39;;;;;;;9.40;4.40;;;18.70;99.90;;;-144.05;63.80;56927.41;5345674;26;20396;-77
2024/04/12 11:13:18;;;;;;;7.35;4.00;;;15.00;99.90;;;-144.05;63.80;56942.28;5343896;26;20065;-80
2024/04/12 11:32:18;;;;;;;9.38;3.80;;;16.70;99.90;;;-144.05;59.65;56961.41;5380158;26;20011;-78
2024/04/12 11:34:45;;;;;;;7.07;3.88;;;;;;;-144.05;59.80;56965.66;5379552;26;19996;-78
2024/04/12 11:37:13;;;;;;;5.30;3.35;;;16.00;99.90;;;-144.05;59.26;56944.41;5379714;26;20001;-78
2024/04/12 11:39:41;;;;;;;7.10;3.65;;;19.70;99.90;;;-144.05;59.03;56942.28;5379224;26;20025;-81
2024/04/12 11:42:15;;;;;;;5.43;3.13;;;20.30;99.90;;;-144.05;58.67;56944.41;5379142;26;20341;-81
2024/04/12 11:44:47;;;;;;;7.53;3.05;;;20.30;99.90;;;-144.05;57.51;56938.03;5342703;26;20023;-80
2024/04/12 11:47:16;;;;;;;5.47;2.67;;;17.00;99.90;;;-144.05;57.78;56965.66;5348425;26;20464;-80
2024/04/12 11:49:45;;;;;;;5.07;2.95;;;20.30;99.90;;;-144.05;57.21;56959.28;5350544;26;20019;-79
2024/04/12 11:52:18;;;;;;;5.80;2.80;;;19.20;99.90;;;-144.05;56.91;56948.66;5395623;26;20014;-79
2024/04/12 11:54:51;;;;;;;8.88;3.13;;;17.00;99.90;;;-144.05;56.21;56963.53;5350123;26;20001;-80